AirNav   Advertisement
 
 422 users online  

75NC JW Stone Airport
Middlesex, North Carolina, USA

GOING TO MIDDLESEX?


FAA INFORMATION EFFECTIVE 17 AUGUST 2017

Location

FAA Identifier: 75NC
Lat/Long: 35-50-57.5570N / 078-11-00.9770W
35-50.959283N / 078-11.016283W
35.8493214 / -78.1836047
(estimated)
Elevation: 246 ft. / 75.0 m (surveyed)
Variation: 07W (1985)
From city: 3 miles N of MIDDLESEX, NC
Time zone: UTC -4 (UTC -5 during Standard Time)
Zip code: 27557

Airport Operations

Airport use: Private use. Permission required prior to landing
Activation date: 08/1947
Control tower: no
ARTCC: WASHINGTON CENTER
FSS: RALEIGH FLIGHT SERVICE STATION
Attendance: UNATNDD
Wind indicator: no
Segmented circle: no

Airport Communications

WX AWOS-3 at LHZ (13 nm NW): 118.325 (919-497-0810)
WX ASOS at RWI (14 nm E): 118.875 (252-446-0732)

Nearby radio navigation aids

VOR radial/distance  VOR name  Freq  Var
TYIr257/24.5TAR RIVER VORTAC117.8005W
RDUr097/29.2RALEIGH/DURHAM VORTAC117.2004W

 
NDB name  Hdg/Dist  Freq  Var  ID
HUNTSBORO151/34.427109WHXO .... -..- ---
HARNETT052/34.641708WHQT .... --.- -

Airport Services

Airframe service: NONE
Powerplant service: NONE

Runway Information

Runway 15/33

Dimensions: 1600 x 100 ft. / 488 x 30 m
Surface: turf
RUNWAY 15  RUNWAY 33
Traffic pattern: leftleft
Obstructions: 4 ft. fence, 300 ft. from runway30 ft. pline

Airport Ownership and Management from official FAA records

Ownership: Privately-owned
Owner: J. W. STONE
BAILEY, NC 27807
Phone 252-235-4794
Manager: Phone 919-235-4794

Instrument Procedures

There are no published instrument procedures at 75NC.

Some nearby airports with instrument procedures:

W03 - Wilson Industrial Air Center Airport (11 nm SE)
KLHZ - Triangle North Executive Airport (13 nm NW)
KRWI - Rocky Mount-Wilson Regional Airport (14 nm E)
KJNX - Johnston Regional Airport (21 nm SW)
KGWW - Wayne Executive Jetport Airport (26 nm SE)
 
Loc | Ops | Rwys | IFR | FBO | Links
Com | Nav | Svcs | Stats | Notes


 
Area around 75NC (JW Stone Airport)
 
Road maps at: MapQuest Bing Google
 
Aerial photo
No photo
 
Sectional chart

 
Airport distance calculator
Flying to JW Stone Airport? Find the distance to fly.

From to 75NC

Sunrise and sunset
Times for 18-Aug-2017
 Local
(UTC-4)
 Zulu
(UTC)
Morning civil twilight06:0810:08
Sunrise06:3510:35
Sunset19:5823:58
Evening civil twilight20:2500:25

Current date and time
Zulu (UTC)  18-Aug-2017 06:20:40
Local (UTC-4)  18-Aug-2017 02:20:40
 
METAR
KLHZ 
13nm NW 
180545Z AUTO 00000KT 5SM BR CLR 22/22 A2998 RMK AO2
KRWI 
14nm E 
180553Z AUTO 18003KT 6SM BR CLR 24/24 A2995 RMK AO2 SLP141 T02390239 10244 20233 58013
KJNX 
21nm SW 
180545Z AUTO 00000KT 10SM CLR 23/23 A2995 RMK AO2
KGWW 
25nm SE 
180545Z AUTO 19003KT 4SM BR SCT003 24/24 A2996 RMK AO2 T02410241
TAF
KRWI 
14nm E 
180531Z 1806/1906 00000KT P6SM SCT009 TEMPO 1806/1808 5SM BR SCT009 FM180800 VRB02KT 3SM BR BKN005 TEMPO 1808/1812 1/2SM FG OVC002 FM181500 21006KT P6SM VCSH BKN035 FM181900 22009KT P6SM BKN050 PROB30 1900/1904 VRB15G25KT 2SM TSRA BKN025CB
NOTAMs
Click for the latest NOTAMs
NOTAMs are issued by the DoD/FAA and will open in a separate window not controlled by AirNav.

 

 
 

Would you like to see your business listed on this page?

 If your business provides an interesting product or service to pilots, flight crews, aircraft, or users of the JW Stone Airport, you should consider listing it here.  To start the listing process, click on the button below
 
Add a business
 

Other Pages about JW Stone Airport

Update a link
 
Copyright © AirNav, LLC. All rights reserved. Privacy Policy  Contact